createdAt,value
2023-03-05T00:01:42.319Z,7.80
2023-03-05T00:04:15.276Z,6.97
2023-03-05T00:06:43.708Z,9.50
2023-03-05T00:09:12.355Z,8.03
2023-03-05T00:11:40.823Z,10.37
2023-03-05T00:14:09.150Z,12.23
2023-03-05T00:16:37.470Z,10.30
2023-03-05T00:19:08.669Z,9.87
2023-03-05T00:21:39.696Z,11.03
2023-03-05T00:24:12.396Z,12.47
2023-03-05T00:26:41.398Z,10.67
2023-03-05T00:29:21.810Z,5.70
2023-03-05T00:31:50.393Z,10.67
2023-03-05T00:34:21.141Z,10.90
2023-03-05T00:36:53.129Z,8.53
2023-03-05T00:39:23.005Z,5.73
2023-03-05T00:41:51.993Z,7.87
2023-03-05T00:44:21.017Z,8.33
2023-03-05T00:46:50.047Z,11.07
2023-03-05T00:49:19.977Z,10.73
2023-03-05T00:51:48.247Z,10.97
2023-03-05T00:54:16.626Z,7.93
2023-03-05T00:56:44.988Z,10.90
2023-03-05T00:59:13.516Z,8.37
2023-03-05T01:01:41.875Z,6.00
2023-03-05T01:04:10.629Z,10.83
2023-03-05T01:06:42.723Z,10.90
2023-03-05T01:09:11.067Z,11.97
2023-03-05T01:11:39.375Z,7.77
2023-03-05T01:14:07.687Z,6.60
2023-03-05T01:16:35.980Z,7.17
2023-03-05T01:19:04.657Z,13.67
2023-03-05T01:21:33.255Z,8.83
2023-03-05T01:24:03.440Z,8.40
2023-03-05T01:26:31.823Z,12.57
2023-03-05T01:29:00.310Z,9.53
2023-03-05T01:31:28.916Z,10.23
2023-03-05T01:33:57.357Z,14.07
2023-03-05T01:36:25.643Z,10.20
2023-03-05T01:38:54.358Z,5.57
2023-03-05T01:41:24.001Z,14.67
2023-03-05T01:43:53.220Z,8.77
2023-03-05T01:46:38.041Z,7.93
2023-03-05T01:49:26.253Z,12.30
2023-03-05T01:52:07.507Z,13.53
2023-03-05T01:54:41.497Z,7.40
2023-03-05T01:57:16.515Z,7.13
2023-03-05T01:59:47.987Z,6.17
2023-03-05T02:02:21.986Z,10.87
2023-03-05T02:04:55.754Z,10.67
2023-03-05T02:07:25.370Z,11.47
2023-03-05T02:09:53.934Z,4.83
2023-03-05T02:12:24.379Z,11.37
2023-03-05T02:14:59.219Z,9.93
2023-03-05T02:17:29.679Z,7.87
2023-03-05T02:20:08.214Z,4.97
2023-03-05T02:22:38.092Z,5.57
2023-03-05T02:25:17.173Z,12.33
2023-03-05T02:27:53.449Z,6.50
2023-03-05T02:30:21.995Z,6.17
2023-03-05T02:32:50.740Z,7.27
2023-03-05T02:35:20.347Z,10.80
2023-03-05T02:37:50.406Z,13.23
2023-03-05T02:40:19.229Z,8.00
2023-03-05T02:42:47.722Z,9.50
2023-03-05T02:45:18.037Z,5.57
2023-03-05T02:47:46.453Z,6.67
2023-03-05T02:50:15.144Z,9.93
2023-03-05T02:52:43.626Z,10.03
2023-03-05T02:55:17.241Z,7.60
2023-03-05T02:57:46.224Z,12.43
2023-03-05T03:00:16.152Z,7.90
2023-03-05T03:02:44.658Z,7.77
2023-03-05T03:05:12.973Z,10.27
2023-03-05T03:07:41.295Z,7.33
2023-03-05T03:10:11.832Z,7.27
2023-03-05T03:12:42.371Z,9.43
2023-03-05T03:15:14.054Z,9.23
2023-03-05T03:17:42.335Z,5.43
2023-03-05T03:20:13.953Z,7.63
2023-03-05T03:22:43.865Z,9.47
2023-03-05T03:25:15.886Z,6.07
2023-03-05T03:27:45.950Z,10.07
2023-03-05T03:30:16.484Z,15.53
2023-03-05T03:32:45.439Z,8.23
2023-03-05T03:35:14.893Z,11.43
2023-03-05T03:37:43.196Z,8.60
2023-03-05T03:40:13.748Z,16.87
2023-03-05T03:42:42.165Z,11.13
2023-03-05T03:45:13.608Z,7.37
2023-03-05T03:47:41.893Z,6.80
2023-03-05T03:50:12.628Z,7.03
2023-03-05T03:52:40.831Z,5.17
2023-03-05T03:55:10.447Z,6.27
2023-03-05T03:57:38.844Z,10.30
2023-03-05T04:00:09.912Z,11.73
2023-03-05T04:02:42.184Z,10.43
2023-03-05T04:05:11.257Z,9.80
2023-03-05T04:07:39.593Z,12.87
2023-03-05T04:10:09.147Z,9.40
2023-03-05T04:12:37.384Z,6.60
2023-03-05T04:15:08.572Z,9.47
2023-03-05T04:17:37.152Z,11.23
2023-03-05T04:20:10.216Z,11.07
2023-03-05T04:22:38.877Z,8.60
2023-03-05T04:25:08.431Z,8.27
2023-03-05T04:27:40.035Z,8.73
2023-03-05T04:30:11.079Z,6.70
2023-03-05T04:32:39.465Z,11.30
2023-03-05T04:35:10.031Z,6.73
2023-03-05T04:37:38.538Z,9.83
2023-03-05T04:40:09.237Z,9.67
2023-03-05T04:42:37.547Z,8.10
2023-03-05T04:45:07.718Z,5.50
2023-03-05T04:47:36.498Z,9.53
2023-03-05T04:50:05.665Z,5.97
2023-03-05T04:52:35.425Z,8.23
2023-03-05T04:55:03.915Z,8.20
2023-03-05T04:57:32.196Z,7.00
2023-03-05T05:00:00.583Z,8.17
2023-03-05T05:02:28.837Z,10.07
2023-03-05T05:04:57.305Z,8.10
2023-03-05T05:07:25.495Z,14.80
2023-03-05T05:09:55.126Z,11.17
2023-03-05T05:12:23.334Z,6.63
2023-03-05T05:14:51.568Z,6.60
2023-03-05T05:17:19.775Z,10.40
2023-03-05T05:19:48.846Z,9.00
2023-03-05T05:22:17.848Z,5.70
2023-03-05T05:24:46.112Z,5.70
2023-03-05T05:27:15.794Z,10.27
2023-03-05T05:29:46.279Z,8.43
2023-03-05T05:32:14.679Z,4.60
2023-03-05T05:34:42.978Z,9.57
2023-03-05T05:37:11.266Z,6.80
2023-03-05T05:39:39.498Z,7.07
2023-03-05T05:42:08.606Z,11.23
2023-03-05T05:44:38.331Z,7.37
2023-03-05T05:47:06.983Z,5.80
2023-03-05T05:49:35.299Z,7.87
2023-03-05T05:52:03.743Z,4.37
2023-03-05T05:54:31.943Z,8.00
2023-03-05T05:57:00.230Z,5.70
2023-03-05T05:59:28.756Z,4.67
2023-03-05T06:01:58.443Z,6.33
2023-03-05T06:04:26.692Z,9.97
2023-03-05T06:06:54.984Z,10.70
2023-03-05T06:09:23.397Z,8.23
2023-03-05T06:11:51.674Z,3.20
2023-03-05T06:14:20.053Z,6.27
2023-03-05T06:16:48.347Z,8.57
2023-03-05T06:19:17.984Z,3.60
2023-03-05T06:21:46.274Z,2.90
2023-03-05T06:24:14.589Z,2.70
2023-03-05T06:26:42.821Z,4.77
2023-03-05T06:29:11.041Z,2.87
2023-03-05T06:31:40.489Z,3.73
2023-03-05T06:34:08.802Z,4.30
2023-03-05T06:36:40.378Z,4.63
2023-03-05T06:39:08.697Z,4.43
2023-03-05T06:41:37.165Z,4.10
2023-03-05T06:44:06.090Z,4.90
2023-03-05T06:46:39.143Z,3.10
2023-03-05T06:49:09.382Z,3.67
2023-03-05T06:51:42.281Z,2.53
2023-03-05T06:54:14.104Z,4.77
2023-03-05T06:56:45.153Z,4.47
2023-03-05T06:59:16.026Z,5.53
2023-03-05T07:01:44.586Z,2.53
2023-03-05T07:04:13.730Z,5.73
2023-03-05T07:06:44.126Z,4.97
2023-03-05T07:09:16.512Z,4.60
2023-03-05T07:11:44.773Z,8.30
2023-03-05T07:14:13.303Z,11.00
2023-03-05T07:16:41.543Z,4.63
2023-03-05T07:19:10.900Z,17.43
2023-03-05T07:21:40.130Z,6.53
2023-03-05T07:24:10.181Z,3.80
2023-03-05T07:26:38.449Z,6.97
2023-03-05T07:29:06.701Z,7.80
2023-03-05T07:31:35.077Z,9.20
2023-03-05T07:34:06.449Z,5.70
2023-03-05T07:36:35.333Z,6.30
2023-03-05T07:39:06.474Z,6.67
2023-03-05T07:41:36.308Z,7.80
2023-03-05T07:44:04.891Z,6.87
2023-03-05T07:46:35.218Z,6.80
2023-03-05T07:49:03.631Z,8.80
2023-03-05T07:51:32.356Z,6.07
2023-03-05T07:54:01.192Z,4.83
2023-03-05T07:56:35.302Z,6.40
2023-03-05T07:59:08.013Z,3.33
2023-03-05T08:01:36.972Z,8.73
2023-03-05T08:04:07.721Z,8.03
2023-03-05T08:06:36.078Z,13.00
2023-03-05T08:09:04.403Z,12.80
2023-03-05T08:11:32.680Z,8.53
2023-03-05T08:14:00.960Z,9.50
2023-03-05T08:16:30.712Z,8.13
2023-03-05T08:19:00.181Z,9.50
2023-03-05T08:21:33.582Z,6.47
2023-03-05T08:24:04.090Z,6.97
2023-03-05T08:26:34.419Z,5.40
2023-03-05T08:29:03.535Z,8.70
2023-03-05T08:31:34.035Z,7.77
2023-03-05T08:34:04.368Z,6.60
2023-03-05T08:36:32.901Z,4.47
2023-03-05T08:39:01.254Z,5.47
2023-03-05T08:41:29.827Z,5.10
2023-03-05T08:43:58.090Z,5.80
2023-03-05T08:46:26.620Z,4.60
2023-03-05T08:48:56.408Z,5.67
2023-03-05T08:51:27.382Z,7.73
2023-03-05T08:53:58.801Z,5.97
2023-03-05T08:56:28.465Z,10.30
2023-03-05T08:58:56.731Z,6.43
2023-03-05T09:01:25.027Z,10.47
2023-03-05T09:03:53.402Z,7.33
2023-03-05T09:06:23.153Z,7.67
2023-03-05T09:08:51.581Z,7.07
2023-03-05T09:11:20.284Z,8.80
2023-03-05T09:13:48.682Z,11.07
2023-03-05T09:16:19.905Z,6.47
2023-03-05T09:18:48.240Z,11.87
2023-03-05T09:21:18.873Z,7.57
2023-03-05T09:23:48.599Z,5.20
2023-03-05T09:26:19.355Z,6.30
2023-03-05T09:28:48.743Z,7.00
2023-03-05T09:31:17.564Z,4.73
2023-03-05T09:33:45.920Z,11.13
2023-03-05T09:36:23.206Z,6.93
2023-03-05T09:38:53.821Z,5.77
2023-03-05T09:41:37.725Z,7.83
2023-03-05T09:44:29.315Z,7.13
2023-03-05T09:47:20.430Z,3.90
2023-03-05T09:49:59.822Z,12.23
2023-03-05T09:52:40.755Z,4.97
2023-03-05T09:55:18.730Z,2.70
2023-03-05T09:57:54.699Z,6.47
2023-03-05T10:00:36.841Z,8.07
2023-03-05T10:03:12.087Z,10.00
2023-03-05T10:06:01.263Z,8.53
2023-03-05T10:08:43.008Z,9.73
2023-03-05T10:11:34.887Z,6.77
2023-03-05T10:14:04.540Z,9.50
2023-03-05T10:17:03.674Z,4.77
2023-03-05T10:19:54.980Z,9.07
2023-03-05T10:22:28.129Z,9.53
2023-03-05T10:25:14.989Z,8.47
2023-03-05T10:27:54.062Z,11.07
2023-03-05T10:30:49.647Z,12.30
2023-03-05T10:33:29.249Z,8.87
2023-03-05T10:36:41.511Z,6.90
2023-03-05T10:39:53.766Z,10.87
2023-03-05T10:42:32.023Z,5.40
2023-03-05T10:45:14.229Z,11.30
2023-03-05T10:47:52.372Z,6.93
2023-03-05T10:50:24.734Z,8.43
2023-03-05T10:53:08.418Z,7.20
2023-03-05T10:55:36.940Z,4.77
2023-03-05T10:58:13.822Z,11.53
2023-03-05T11:01:07.821Z,8.73
2023-03-05T11:03:54.301Z,4.73
2023-03-05T11:06:38.057Z,5.93
2023-03-05T11:09:24.259Z,4.17
2023-03-05T11:12:15.676Z,5.17
2023-03-05T11:14:46.884Z,6.37
2023-03-05T11:17:33.029Z,4.60
2023-03-05T11:20:31.943Z,2.87
2023-03-05T11:23:23.643Z,3.60
2023-03-05T11:26:02.064Z,5.03
2023-03-05T11:28:36.268Z,4.37
2023-03-05T11:31:20.646Z,4.47
2023-03-05T11:34:02.293Z,4.73
2023-03-05T11:36:34.827Z,4.30
2023-03-05T11:39:16.457Z,3.07
2023-03-05T11:41:49.582Z,7.93
2023-03-05T11:44:23.969Z,3.03
2023-03-05T11:46:59.244Z,4.87
2023-03-05T11:49:34.110Z,4.13
2023-03-05T11:52:12.175Z,3.33
2023-03-05T11:54:53.844Z,5.47
2023-03-05T11:57:25.634Z,6.00
2023-03-05T11:59:57.274Z,4.83
2023-03-05T12:02:28.774Z,5.73
2023-03-05T12:04:59.479Z,3.13
2023-03-05T12:07:38.344Z,2.23
2023-03-05T12:10:07.521Z,2.90
2023-03-05T12:12:45.597Z,3.80
2023-03-05T12:15:45.694Z,5.27
2023-03-05T12:18:27.210Z,4.77
2023-03-05T12:21:08.066Z,7.87
2023-03-05T12:23:50.206Z,1.53
2023-03-05T12:26:19.202Z,3.53
2023-03-05T12:28:58.494Z,4.53
2023-03-05T12:31:40.378Z,3.17
2023-03-05T12:34:58.116Z,3.63
2023-03-05T12:38:24.233Z,3.07
2023-03-05T12:40:52.835Z,4.87
2023-03-05T12:43:33.500Z,4.37
2023-03-05T12:46:29.186Z,4.10
2023-03-05T12:48:57.610Z,5.13
2023-03-05T12:51:37.723Z,3.43
2023-03-05T12:54:33.485Z,2.20
2023-03-05T12:57:05.392Z,4.57
2023-03-05T12:59:44.740Z,3.63
2023-03-05T13:02:27.290Z,3.40
2023-03-05T13:05:02.283Z,2.93
2023-03-05T13:07:30.914Z,5.20
2023-03-05T13:10:01.333Z,3.63
2023-03-05T13:12:31.866Z,4.80
2023-03-05T13:15:04.247Z,4.03
2023-03-05T13:17:41.383Z,3.63
2023-03-05T13:20:34.985Z,3.17
2023-03-05T13:23:21.604Z,2.43
2023-03-05T13:26:15.235Z,3.83
2023-03-05T13:28:45.811Z,4.37
2023-03-05T13:31:18.090Z,5.23
2023-03-05T13:33:55.268Z,3.43
2023-03-05T13:36:27.903Z,2.47
2023-03-05T13:38:56.543Z,4.47
2023-03-05T13:41:28.812Z,7.20
2023-03-05T13:43:59.955Z,2.93
2023-03-05T13:46:32.520Z,3.37
2023-03-05T13:49:23.520Z,3.23
2023-03-05T13:51:55.587Z,2.87
2023-03-05T13:54:26.603Z,2.80
2023-03-05T13:57:00.087Z,2.60
2023-03-05T13:59:31.816Z,5.07
2023-03-05T14:02:02.291Z,6.30
2023-03-05T14:04:36.653Z,4.23
2023-03-05T14:10:34.267Z,4.70
2023-03-05T14:13:13.898Z,6.97
2023-03-05T14:15:42.346Z,6.33
2023-03-05T14:18:21.347Z,4.17
2023-03-05T14:21:03.670Z,2.30
2023-03-05T14:23:42.891Z,4.83
2023-03-05T14:26:33.649Z,4.93
2023-03-05T14:29:14.112Z,7.83
2023-03-05T14:31:50.896Z,2.93
2023-03-05T14:34:26.581Z,8.73
2023-03-05T14:36:59.191Z,4.57
2023-03-05T14:39:41.008Z,3.40
2023-03-05T14:42:52.826Z,3.30
2023-03-05T14:45:26.766Z,3.80
2023-03-05T14:47:59.188Z,5.67
2023-03-05T14:50:31.682Z,5.60
2023-03-05T14:53:03.762Z,7.60
2023-03-05T14:55:33.652Z,5.37
2023-03-05T14:58:08.234Z,6.33
2023-03-05T15:00:37.926Z,3.43
2023-03-05T15:03:06.636Z,5.30
2023-03-05T15:05:35.148Z,2.37
2023-03-05T15:08:03.737Z,5.70
2023-03-05T15:10:32.037Z,5.93
2023-03-05T15:13:00.514Z,6.93
2023-03-05T15:15:29.141Z,4.43
2023-03-05T15:17:58.900Z,8.00
2023-03-05T15:20:31.077Z,2.73
2023-03-05T15:22:59.457Z,4.90
2023-03-05T15:25:28.647Z,5.90
2023-03-05T15:27:59.053Z,5.67
2023-03-05T15:30:31.942Z,4.67
2023-03-05T15:33:05.828Z,4.33
2023-03-05T15:35:34.395Z,5.07
2023-03-05T15:38:03.036Z,10.53
2023-03-05T15:40:31.437Z,11.07
2023-03-05T15:43:02.680Z,6.23
2023-03-05T15:45:31.720Z,4.20
2023-03-05T15:48:01.972Z,4.37
2023-03-05T15:50:30.833Z,5.87
2023-03-05T15:53:00.090Z,10.50
2023-03-05T15:55:28.365Z,5.77
2023-03-05T15:57:56.683Z,4.73
2023-03-05T16:00:31.403Z,3.53
2023-03-05T16:03:01.205Z,4.30
2023-03-05T16:05:29.796Z,3.53
2023-03-05T16:07:59.835Z,3.83
2023-03-05T16:10:30.724Z,5.50
2023-03-05T16:13:04.771Z,5.27
2023-03-05T16:15:35.077Z,6.53
2023-03-05T16:18:10.576Z,5.03
2023-03-05T16:20:39.040Z,5.27
2023-03-05T16:23:07.979Z,3.70
2023-03-05T16:25:36.320Z,4.93
2023-03-05T16:28:04.679Z,5.83
2023-03-05T16:30:33.443Z,5.63
2023-03-05T16:33:02.003Z,6.93
2023-03-05T16:35:31.692Z,2.60
2023-03-05T16:38:00.225Z,4.97
2023-03-05T16:40:44.174Z,4.13
2023-03-05T16:43:16.861Z,7.63
2023-03-05T16:45:45.109Z,5.00
2023-03-05T16:48:13.494Z,6.90
2023-03-05T16:50:43.143Z,8.40
2023-03-05T16:53:11.664Z,7.27
2023-03-05T16:55:40.277Z,4.23
2023-03-05T16:58:08.628Z,4.97
2023-03-05T17:00:36.852Z,6.13
2023-03-05T17:03:05.394Z,9.93
2023-03-05T17:05:37.050Z,6.43
2023-03-05T17:08:07.431Z,4.87
2023-03-05T17:10:35.903Z,7.07
2023-03-05T17:13:04.492Z,5.80
2023-03-05T17:15:33.983Z,8.00
2023-03-05T17:18:03.112Z,9.23
2023-03-05T17:20:31.412Z,6.07
2023-03-05T17:23:03.315Z,10.00
2023-03-05T17:25:32.925Z,8.10
2023-03-05T17:28:01.249Z,5.27
2023-03-05T17:30:31.278Z,8.90
2023-03-05T17:32:59.832Z,8.10
2023-03-05T17:35:29.407Z,6.27
2023-03-05T17:37:58.641Z,6.60
2023-03-05T17:40:27.075Z,6.63
2023-03-05T17:42:56.804Z,14.20
2023-03-05T17:45:25.111Z,5.30
2023-03-05T17:47:53.868Z,6.83
2023-03-05T17:50:22.580Z,6.87
2023-03-05T17:52:51.154Z,10.47
2023-03-05T17:55:21.846Z,4.23
2023-03-05T17:57:52.276Z,5.07
2023-03-05T18:00:25.217Z,4.33
2023-03-05T18:02:54.084Z,11.03
2023-03-05T18:05:24.780Z,5.67
2023-03-05T18:07:54.785Z,9.70
2023-03-05T18:10:25.947Z,6.93
2023-03-05T18:12:55.668Z,8.03
2023-03-05T18:15:27.712Z,6.80
2023-03-05T18:17:56.923Z,5.57
2023-03-05T18:20:30.152Z,6.47
2023-03-05T18:23:01.406Z,8.17
2023-03-05T18:25:31.720Z,8.93
2023-03-05T18:28:01.512Z,8.00
2023-03-05T18:30:32.284Z,7.03
2023-03-05T18:33:00.946Z,10.10
2023-03-05T18:35:29.954Z,11.23
2023-03-05T18:37:59.049Z,8.33
2023-03-05T18:40:32.381Z,9.23
2023-03-05T18:43:01.951Z,7.47
2023-03-05T18:45:34.174Z,8.40
2023-03-05T18:48:02.526Z,9.83
2023-03-05T18:50:31.059Z,7.07
2023-03-05T18:52:59.475Z,11.93
2023-03-05T18:55:31.198Z,10.77
2023-03-05T18:58:00.081Z,8.07
2023-03-05T19:00:32.772Z,7.70
2023-03-05T19:03:03.260Z,8.33
2023-03-05T19:05:32.169Z,6.93
2023-03-05T19:08:01.845Z,8.27
2023-03-05T19:10:32.062Z,9.73
2023-03-05T19:13:15.662Z,6.93
2023-03-05T19:15:45.371Z,6.63
2023-03-05T19:18:13.931Z,9.13
2023-03-05T19:20:44.484Z,8.70
2023-03-05T19:23:12.752Z,11.23
2023-03-05T19:25:42.093Z,12.40
2023-03-05T19:28:10.323Z,11.33
2023-03-05T19:30:39.171Z,7.50
2023-03-05T19:33:08.973Z,8.17
2023-03-05T19:35:37.376Z,9.10
2023-03-05T19:38:05.792Z,8.00
2023-03-05T19:40:34.561Z,11.47
2023-03-05T19:43:03.071Z,8.87
2023-03-05T19:45:35.187Z,10.13
2023-03-05T19:48:04.014Z,11.47
2023-03-05T19:50:34.646Z,9.13
2023-03-05T19:53:03.130Z,9.37
2023-03-05T19:55:31.513Z,11.30
2023-03-05T19:57:59.872Z,10.20
2023-03-05T20:00:28.643Z,8.97
2023-03-05T20:02:57.121Z,13.33
2023-03-05T20:05:26.576Z,10.57
2023-03-05T20:07:56.702Z,11.07
2023-03-05T20:10:25.397Z,10.20
2023-03-05T20:12:53.910Z,11.97
2023-03-05T20:15:23.704Z,11.00
2023-03-05T20:17:54.129Z,18.17
2023-03-05T20:20:22.772Z,11.30
2023-03-05T20:22:51.090Z,10.23
2023-03-05T20:25:24.799Z,9.47
2023-03-05T20:27:53.725Z,10.53
2023-03-05T20:30:22.694Z,7.90
2023-03-05T20:32:51.044Z,7.40
2023-03-05T20:35:19.998Z,6.20
2023-03-05T20:38:00.169Z,6.10
2023-03-05T20:40:30.008Z,7.60
2023-03-05T20:42:58.382Z,12.53
2023-03-05T20:45:26.793Z,4.97
2023-03-05T20:47:55.145Z,6.83
2023-03-05T20:50:23.643Z,5.10
2023-03-05T20:52:52.312Z,7.67
2023-03-05T20:55:20.690Z,6.90
2023-03-05T20:57:50.437Z,6.30
2023-03-05T21:00:20.116Z,6.37
2023-03-05T21:02:50.258Z,8.87
2023-03-05T21:05:20.004Z,11.80
2023-03-05T21:07:50.926Z,6.87
2023-03-05T21:10:19.806Z,7.43
2023-03-05T21:12:51.696Z,7.00
2023-03-05T21:15:23.375Z,6.40
2023-03-05T21:17:51.885Z,8.17
2023-03-05T21:20:24.412Z,7.00
2023-03-05T21:22:52.764Z,9.60
2023-03-05T21:25:23.006Z,6.83
2023-03-05T21:27:58.751Z,8.03
2023-03-05T21:30:33.463Z,9.50
2023-03-05T21:33:03.110Z,9.23
2023-03-05T21:35:33.133Z,7.37
2023-03-05T21:38:01.861Z,6.97
2023-03-05T21:40:31.784Z,7.47
2023-03-05T21:43:01.810Z,6.60
2023-03-05T21:45:31.605Z,9.20
2023-03-05T21:48:00.034Z,9.63
2023-03-05T21:50:29.931Z,9.63
2023-03-05T21:53:00.444Z,7.70
2023-03-05T21:55:32.930Z,7.00
2023-03-05T21:58:03.077Z,8.93
2023-03-05T22:00:31.414Z,15.70
2023-03-05T22:02:59.820Z,11.33
2023-03-05T22:05:28.365Z,15.63
2023-03-05T22:07:57.237Z,15.63
2023-03-05T22:10:26.007Z,15.90
2023-03-05T22:13:03.102Z,16.40
2023-03-05T22:15:32.802Z,14.63
2023-03-05T22:18:01.634Z,16.63
2023-03-05T22:20:29.920Z,19.07
2023-03-05T22:22:58.550Z,14.80
2023-03-05T22:25:26.853Z,21.13
2023-03-05T22:27:55.430Z,17.03
2023-03-05T22:30:24.432Z,21.37
2023-03-05T22:32:54.974Z,16.77
2023-03-05T22:35:23.571Z,15.87
2023-03-05T22:37:52.147Z,19.30
2023-03-05T22:40:22.900Z,17.27
2023-03-05T22:42:51.169Z,19.10
2023-03-05T22:45:20.340Z,17.47
2023-03-05T22:47:50.493Z,18.10
2023-03-05T22:50:20.370Z,16.90
2023-03-05T22:52:48.662Z,17.70
2023-03-05T22:55:18.444Z,19.33
2023-03-05T22:57:47.279Z,19.40
2023-03-05T23:00:23.368Z,18.27
2023-03-05T23:02:52.366Z,17.13
2023-03-05T23:05:22.599Z,18.20
2023-03-05T23:07:51.044Z,18.93
2023-03-05T23:10:25.548Z,17.07
2023-03-05T23:12:57.210Z,16.67
2023-03-05T23:15:29.854Z,18.73
2023-03-05T23:17:58.559Z,17.17
2023-03-05T23:20:32.730Z,16.57
2023-03-05T23:23:01.351Z,17.80
2023-03-05T23:25:32.970Z,16.57
2023-03-05T23:28:02.297Z,20.37
2023-03-05T23:30:31.483Z,14.83
2023-03-05T23:33:04.737Z,14.77
2023-03-05T23:35:37.889Z,17.77
2023-03-05T23:38:09.709Z,17.70
2023-03-05T23:40:41.907Z,18.70
2023-03-05T23:43:11.384Z,15.70
2023-03-05T23:45:41.783Z,15.00
2023-03-05T23:48:10.795Z,13.20
2023-03-05T23:50:43.819Z,15.37
2023-03-05T23:53:17.393Z,16.07
2023-03-05T23:55:45.993Z,15.70
2023-03-05T23:58:15.324Z,15.47
